Terminal Aerodrome Forecast
Issued by NWS Billings, MT

Home | Current Version | Previous Version | Text Only | Print | Product List | Glossary Off
Versions: 1 2 3 4 5 6 7 8 9 10 11 12 13 14 15 16 17 18 19 20 21 22 23 24 25 26 27 28 29 30 31 32 33 34 35 36 37 38 39

000
FTUS45 KBYZ 020529
TAFMLS
TAF
KMLS 020529Z 0206/0306 24022G30KT 4SM +TSRA FEW050CB BKN080
      TEMPO 0206/0208 2SM +TSRA BKN040CB
     FM020800 36008KT P6SM VCTS FEW050CB BKN150
     FM021200 30009KT P6SM FEW015
     FM021600 30014G26KT P6SM SCT200
     FM030300 01008KT P6SM VCTS BKN080CB=

USA.gov is the U.S. government's official web portal to all federal, state and local government web resources and services.